createdAt,value
2022-08-16T00:01:33.972Z,14.15
2022-08-16T00:04:05.071Z,13.13
2022-08-16T00:06:32.961Z,11.10
2022-08-16T00:09:00.081Z,11.18
2022-08-16T00:11:27.189Z,13.70
2022-08-16T00:13:55.715Z,12.13
2022-08-16T00:17:06.334Z,14.20
2022-08-16T00:19:28.366Z,12.73
2022-08-16T00:22:13.586Z,15.75
2022-08-16T00:24:44.579Z,12.73
2022-08-16T00:27:12.085Z,14.60
2022-08-16T00:29:39.186Z,11.18
2022-08-16T00:32:07.515Z,19.60
2022-08-16T00:34:44.551Z,13.80
2022-08-16T00:37:24.511Z,13.07
2022-08-16T00:39:58.532Z,13.55
2022-08-16T00:42:30.734Z,14.60
2022-08-16T00:45:28.701Z,11.70
2022-08-16T00:47:56.377Z,14.60
2022-08-16T00:50:36.346Z,12.13
2022-08-16T00:53:06.451Z,12.20
2022-08-16T00:55:38.012Z,12.18
2022-08-16T00:58:13.064Z,12.30
2022-08-16T01:00:53.978Z,13.80
2022-08-16T01:03:30.085Z,19.80
2022-08-16T01:05:59.409Z,17.00
2022-08-16T01:08:35.153Z,27.67
2022-08-16T01:11:05.456Z,21.88
2022-08-16T01:13:36.591Z,18.27
2022-08-16T01:16:12.784Z,17.45
2022-08-16T01:18:52.988Z,20.63
2022-08-16T01:21:45.347Z,21.63
2022-08-16T01:24:45.294Z,19.00
2022-08-16T01:27:21.724Z,17.33
2022-08-16T01:30:01.020Z,16.25
2022-08-16T01:32:34.183Z,24.52
2022-08-16T01:35:27.892Z,14.40
2022-08-16T01:37:57.097Z,17.65
2022-08-16T01:40:30.675Z,14.93
2022-08-16T01:42:58.244Z,15.43
2022-08-16T01:45:40.770Z,16.50
2022-08-16T01:48:19.450Z,16.38
2022-08-16T01:51:08.857Z,16.15
2022-08-16T01:53:36.805Z,19.40
2022-08-16T01:56:23.756Z,14.27
2022-08-16T01:58:55.964Z,16.95
2022-08-16T02:01:26.160Z,17.52
2022-08-16T02:03:58.523Z,12.43
2022-08-16T02:06:38.582Z,14.02
2022-08-16T02:09:11.750Z,13.25
2022-08-16T02:11:48.290Z,13.90
2022-08-16T02:14:26.688Z,13.25
2022-08-16T02:16:58.524Z,13.70
2022-08-16T02:19:59.114Z,14.63
2022-08-16T02:22:33.518Z,13.32
2022-08-16T02:25:09.802Z,13.13
2022-08-16T02:27:40.865Z,14.05
2022-08-16T02:30:37.058Z,13.63
2022-08-16T02:33:05.410Z,15.90
2022-08-16T02:35:54.419Z,13.70
2022-08-16T02:38:24.008Z,14.70
2022-08-16T02:40:51.996Z,13.57
2022-08-16T02:43:26.753Z,13.25
2022-08-16T02:45:58.391Z,13.60
2022-08-16T02:48:28.423Z,14.32
2022-08-16T02:51:10.183Z,14.82
2022-08-16T02:53:43.556Z,18.08
2022-08-16T02:56:14.803Z,17.33
2022-08-16T02:58:45.251Z,16.55
2022-08-16T03:01:25.069Z,14.85
2022-08-16T03:04:28.963Z,14.43
2022-08-16T03:06:56.682Z,13.95
2022-08-16T03:09:38.310Z,14.70
2022-08-16T03:12:06.718Z,14.50
2022-08-16T03:14:34.760Z,13.95
2022-08-16T03:17:04.592Z,15.07
2022-08-16T03:19:42.224Z,15.45
2022-08-16T03:22:19.471Z,15.35
2022-08-16T03:25:00.944Z,14.80
2022-08-16T03:27:32.364Z,14.38
2022-08-16T03:30:16.740Z,14.07
2022-08-16T03:32:53.128Z,14.40
2022-08-16T03:35:32.569Z,14.20
2022-08-16T03:38:34.507Z,14.45
2022-08-16T03:40:56.280Z,14.65
2022-08-16T03:43:51.603Z,14.35
2022-08-16T03:46:44.998Z,15.05
2022-08-16T03:49:04.857Z,14.55
2022-08-16T03:51:31.886Z,15.38
2022-08-16T03:54:12.277Z,14.57
2022-08-16T03:56:57.035Z,14.68
2022-08-16T03:59:29.815Z,15.15
2022-08-16T04:02:00.946Z,14.32
2022-08-16T04:04:32.502Z,14.13
2022-08-16T04:07:04.094Z,14.35
2022-08-16T04:09:35.613Z,14.48
2022-08-16T04:12:10.458Z,14.45
2022-08-16T04:14:46.804Z,13.93
2022-08-16T04:17:17.129Z,13.60
2022-08-16T04:19:45.637Z,13.43
2022-08-16T04:22:17.121Z,13.98
2022-08-16T04:24:54.044Z,14.32
2022-08-16T04:27:24.571Z,13.30
2022-08-16T04:30:02.776Z,14.88
2022-08-16T04:32:33.737Z,15.30
2022-08-16T04:35:12.337Z,13.90
2022-08-16T04:37:45.039Z,18.60
2022-08-16T04:40:21.821Z,14.30
2022-08-16T04:42:54.842Z,15.30
2022-08-16T04:45:35.275Z,16.05
2022-08-16T04:48:07.266Z,13.60
2022-08-16T04:50:47.799Z,13.65
2022-08-16T04:53:19.195Z,15.95
2022-08-16T04:55:53.281Z,12.93
2022-08-16T04:58:38.426Z,12.93
2022-08-16T05:01:11.302Z,12.98
2022-08-16T05:03:41.784Z,14.27
2022-08-16T05:06:45.348Z,12.88
2022-08-16T05:12:40.693Z,13.77
2022-08-16T05:15:42.740Z,13.88
2022-08-16T05:18:15.823Z,14.75
2022-08-16T05:21:01.256Z,13.15
2022-08-16T05:23:36.965Z,12.55
2022-08-16T05:26:04.460Z,11.50
2022-08-16T05:28:37.536Z,10.35
2022-08-16T05:31:07.058Z,11.55
2022-08-16T05:33:34.181Z,12.55
2022-08-16T05:36:03.913Z,13.45
2022-08-16T05:38:42.534Z,11.63
2022-08-16T05:41:14.220Z,10.88
2022-08-16T05:43:47.640Z,11.65
2022-08-16T05:46:30.288Z,11.63
2022-08-16T05:49:08.692Z,11.07
2022-08-16T05:51:39.938Z,11.43
2022-08-16T05:54:11.399Z,10.93
2022-08-16T05:56:41.812Z,10.68
2022-08-16T05:59:11.122Z,11.15
2022-08-16T06:01:41.345Z,10.02
2022-08-16T06:04:13.118Z,10.30
2022-08-16T06:06:58.140Z,10.65
2022-08-16T06:09:43.034Z,10.18
2022-08-16T06:12:27.373Z,11.88
2022-08-16T06:14:59.955Z,9.80
2022-08-16T06:17:41.700Z,10.32
2022-08-16T06:20:35.406Z,11.05
2022-08-16T06:23:17.104Z,9.88
2022-08-16T06:26:07.468Z,9.60
2022-08-16T06:28:38.185Z,9.77
2022-08-16T06:31:16.592Z,9.68
2022-08-16T06:33:49.043Z,9.83
2022-08-16T06:36:21.891Z,10.02
2022-08-16T06:38:59.861Z,11.05
2022-08-16T06:41:53.121Z,10.40
2022-08-16T06:44:53.370Z,10.20
2022-08-16T06:47:52.462Z,10.10
2022-08-16T06:50:29.146Z,10.80
2022-08-16T06:53:08.990Z,10.48
2022-08-16T06:55:43.278Z,10.93
2022-08-16T06:58:21.904Z,11.27
2022-08-16T07:00:54.300Z,11.55
2022-08-16T07:03:27.412Z,35.58
2022-08-16T07:05:57.733Z,12.23
2022-08-16T07:08:35.195Z,10.27
2022-08-16T07:11:05.278Z,10.40
2022-08-16T07:14:00.694Z,10.63
2022-08-16T07:16:27.846Z,10.88
2022-08-16T07:19:01.295Z,10.50
2022-08-16T07:21:46.404Z,10.30
2022-08-16T07:24:30.284Z,10.60
2022-08-16T07:27:04.388Z,11.18
2022-08-16T07:29:36.212Z,9.85
2022-08-16T07:32:09.222Z,10.93
2022-08-16T07:34:37.609Z,10.68
2022-08-16T07:37:16.383Z,10.48
2022-08-16T07:40:11.709Z,10.48
2022-08-16T07:42:43.835Z,10.38
2022-08-16T07:45:13.236Z,9.95
2022-08-16T07:47:47.897Z,9.65
2022-08-16T07:50:56.240Z,9.32
2022-08-16T07:53:08.630Z,10.00
2022-08-16T07:55:45.529Z,9.93
2022-08-16T07:58:18.298Z,9.40
2022-08-16T08:01:10.058Z,9.52
2022-08-16T08:03:39.177Z,10.60
2022-08-16T08:06:10.751Z,9.82
2022-08-16T08:08:50.340Z,10.45
2022-08-16T08:11:28.372Z,9.70
2022-08-16T08:14:03.850Z,9.50
2022-08-16T08:16:38.541Z,9.43
2022-08-16T08:19:18.544Z,9.80
2022-08-16T08:22:00.877Z,9.88
2022-08-16T08:24:44.131Z,10.00
2022-08-16T08:27:12.633Z,9.10
2022-08-16T08:30:52.051Z,9.48
2022-08-16T08:32:59.376Z,10.05
2022-08-16T08:35:29.571Z,9.35
2022-08-16T08:37:59.441Z,9.45
2022-08-16T08:40:29.750Z,9.68
2022-08-16T08:43:00.639Z,9.63
2022-08-16T08:45:46.855Z,9.23
2022-08-16T08:48:32.792Z,9.68
2022-08-16T08:51:08.913Z,9.20
2022-08-16T08:53:46.821Z,8.90
2022-08-16T08:56:30.008Z,8.93
2022-08-16T08:59:13.540Z,9.25
2022-08-16T09:01:58.116Z,9.48
2022-08-16T09:04:34.685Z,9.30
2022-08-16T09:07:07.608Z,9.00
2022-08-16T09:09:41.278Z,9.38
2022-08-16T09:12:35.379Z,8.77
2022-08-16T09:15:21.525Z,9.40
2022-08-16T09:17:53.656Z,9.23
2022-08-16T09:20:27.026Z,9.07
2022-08-16T09:22:55.860Z,9.30
2022-08-16T09:25:34.457Z,9.38
2022-08-16T09:28:09.527Z,9.00
2022-08-16T09:30:50.007Z,9.40
2022-08-16T09:33:18.395Z,8.50
2022-08-16T09:35:53.200Z,8.05
2022-08-16T09:41:01.533Z,8.35
2022-08-16T09:43:58.080Z,8.13
2022-08-16T09:46:45.991Z,7.68
2022-08-16T09:49:04.692Z,6.70
2022-08-16T09:51:37.192Z,7.15
2022-08-16T09:54:06.179Z,7.85
2022-08-16T09:56:52.601Z,7.40
2022-08-16T09:59:23.363Z,7.45
2022-08-16T10:01:51.782Z,7.07
2022-08-16T10:04:33.450Z,6.93
2022-08-16T10:07:14.793Z,7.72
2022-08-16T10:09:53.633Z,7.30
2022-08-16T10:12:56.887Z,8.00
2022-08-16T10:15:30.068Z,7.25
2022-08-16T10:18:00.969Z,6.95
2022-08-16T10:20:35.315Z,6.82
2022-08-16T10:23:17.067Z,7.63
2022-08-16T10:27:16.172Z,6.10
2022-08-16T10:28:39.864Z,5.78
2022-08-16T10:31:16.769Z,6.25
2022-08-16T10:33:46.648Z,5.85
2022-08-16T10:36:38.816Z,6.55
2022-08-16T10:39:04.530Z,4.60
2022-08-16T10:41:33.175Z,5.40
2022-08-16T10:44:01.143Z,5.07
2022-08-16T10:46:33.845Z,5.60
2022-08-16T10:49:11.501Z,5.78
2022-08-16T10:52:02.954Z,4.75
2022-08-16T10:54:29.980Z,5.03
2022-08-16T10:56:59.575Z,5.72
2022-08-16T10:59:32.877Z,5.57
2022-08-16T11:02:59.478Z,5.75
2022-08-16T11:05:10.703Z,5.30
2022-08-16T11:16:26.509Z,5.25
2022-08-16T11:19:06.515Z,5.60
2022-08-16T11:22:23.085Z,5.07
2022-08-16T11:24:40.103Z,5.30
2022-08-16T11:27:19.868Z,5.53
2022-08-16T11:29:51.964Z,5.60
2022-08-16T11:32:29.900Z,6.25
2022-08-16T11:35:10.498Z,5.53
2022-08-16T11:40:32.717Z,5.32
2022-08-16T11:43:01.601Z,4.97
2022-08-16T11:45:33.852Z,5.40
2022-08-16T11:48:03.848Z,5.30
2022-08-16T11:50:34.023Z,4.78
2022-08-16T11:53:04.038Z,5.75
2022-08-16T11:55:32.631Z,5.18
2022-08-16T11:58:00.921Z,5.20
2022-08-16T12:00:33.628Z,5.07
2022-08-16T12:03:18.026Z,5.03
2022-08-16T12:05:46.668Z,4.88
2022-08-16T12:10:53.738Z,4.97
2022-08-16T12:13:20.813Z,5.10
2022-08-16T12:15:48.475Z,5.22
2022-08-16T12:18:20.946Z,4.88
2022-08-16T12:20:49.013Z,4.88
2022-08-16T12:23:17.413Z,5.38
2022-08-16T12:25:44.990Z,5.53
2022-08-16T12:28:12.762Z,5.45
2022-08-16T12:30:43.910Z,6.05
2022-08-16T12:33:16.316Z,6.22
2022-08-16T12:35:52.854Z,6.07
2022-08-16T12:38:40.926Z,6.97
2022-08-16T12:41:08.264Z,4.95
2022-08-16T12:43:36.434Z,6.97
2022-08-16T12:46:10.425Z,7.40
2022-08-16T12:48:56.235Z,6.45
2022-08-16T12:51:58.435Z,6.55
2022-08-16T12:54:21.877Z,5.95
2022-08-16T12:56:50.368Z,7.53
2022-08-16T12:59:20.233Z,7.00
2022-08-16T13:01:50.582Z,6.70
2022-08-16T13:04:24.575Z,7.68
2022-08-16T13:06:53.298Z,6.97
2022-08-16T13:09:26.875Z,6.20
2022-08-16T13:12:07.385Z,7.28
2022-08-16T13:14:41.066Z,6.57
2022-08-16T13:17:18.929Z,6.38
2022-08-16T13:20:08.104Z,6.35
2022-08-16T13:25:18.890Z,6.18
2022-08-16T13:28:01.452Z,6.15
2022-08-16T13:30:57.387Z,6.47
2022-08-16T13:33:31.079Z,6.40
2022-08-16T13:36:00.758Z,7.03
2022-08-16T13:38:37.210Z,5.80
2022-08-16T13:41:10.023Z,5.35
2022-08-16T13:43:39.735Z,6.35
2022-08-16T13:46:07.245Z,6.22
2022-08-16T13:48:37.156Z,5.82
2022-08-16T13:51:17.138Z,5.05
2022-08-16T13:53:59.109Z,5.60
2022-08-16T13:56:37.417Z,5.57
2022-08-16T13:59:14.312Z,6.53
2022-08-16T14:01:55.063Z,4.80
2022-08-16T14:04:26.377Z,5.40
2022-08-16T14:06:58.487Z,5.22
2022-08-16T14:09:28.186Z,5.78
2022-08-16T14:11:57.559Z,5.47
2022-08-16T14:14:29.159Z,4.72
2022-08-16T14:16:58.434Z,5.15
2022-08-16T14:19:27.964Z,4.35
2022-08-16T14:22:14.354Z,6.88
2022-08-16T14:24:45.346Z,4.85
2022-08-16T14:27:21.311Z,4.80
2022-08-16T14:29:51.208Z,6.60
2022-08-16T14:32:27.206Z,4.65
2022-08-16T14:35:04.138Z,5.72
2022-08-16T14:37:31.961Z,4.88
2022-08-16T14:39:59.844Z,4.70
2022-08-16T14:42:28.962Z,4.60
2022-08-16T14:45:00.430Z,5.57
2022-08-16T14:47:34.129Z,4.72
2022-08-16T14:50:03.291Z,5.22
2022-08-16T14:55:21.087Z,6.13
2022-08-16T14:57:48.154Z,6.63
2022-08-16T15:00:19.924Z,5.88
2022-08-16T15:02:54.202Z,4.75
2022-08-16T15:07:51.550Z,4.93
2022-08-16T15:10:29.250Z,4.82
2022-08-16T15:13:00.997Z,5.13
2022-08-16T15:15:29.681Z,5.20
2022-08-16T15:17:57.609Z,5.47
2022-08-16T15:20:29.463Z,5.18
2022-08-16T15:22:59.666Z,5.05
2022-08-16T15:25:41.049Z,5.38
2022-08-16T15:28:31.214Z,6.30
2022-08-16T15:31:04.705Z,5.07
2022-08-16T15:33:42.614Z,5.10
2022-08-16T15:36:18.010Z,5.43
2022-08-16T15:39:02.104Z,5.90
2022-08-16T15:41:38.863Z,5.13
2022-08-16T15:44:12.831Z,5.10
2022-08-16T15:46:54.797Z,6.05
2022-08-16T15:49:34.774Z,5.60
2022-08-16T15:52:11.232Z,6.28
2022-08-16T15:54:52.405Z,4.88
2022-08-16T15:57:26.846Z,5.80
2022-08-16T15:59:55.659Z,6.20
2022-08-16T16:02:29.771Z,6.03
2022-08-16T16:05:02.125Z,15.90
2022-08-16T16:07:32.143Z,21.52
2022-08-16T16:10:03.668Z,22.27
2022-08-16T16:12:51.237Z,24.83
2022-08-16T16:15:20.305Z,14.02
2022-08-16T16:17:52.455Z,20.98
2022-08-16T16:20:24.416Z,12.32
2022-08-16T16:22:59.742Z,7.22
2022-08-16T16:25:29.296Z,7.32
2022-08-16T16:27:59.712Z,7.05
2022-08-16T16:30:37.758Z,7.22
2022-08-16T16:33:20.679Z,7.03
2022-08-16T16:35:55.104Z,7.60
2022-08-16T16:38:30.882Z,10.80
2022-08-16T16:41:08.800Z,10.70
2022-08-16T16:43:40.872Z,8.60
2022-08-16T16:46:41.056Z,9.00
2022-08-16T16:48:56.733Z,8.65
2022-08-16T16:51:28.075Z,7.80
2022-08-16T16:53:57.064Z,11.88
2022-08-16T16:56:32.260Z,8.63
2022-08-16T16:59:08.665Z,8.27
2022-08-16T17:01:57.564Z,9.43
2022-08-16T17:04:32.730Z,8.43
2022-08-16T17:07:02.223Z,9.18
2022-08-16T17:09:29.738Z,11.75
2022-08-16T17:11:58.287Z,7.43
2022-08-16T17:14:33.036Z,7.78
2022-08-16T17:17:04.973Z,7.50
2022-08-16T17:19:32.698Z,7.30
2022-08-16T17:22:00.873Z,7.28
2022-08-16T17:24:39.488Z,7.53
2022-08-16T17:27:08.976Z,6.93
2022-08-16T17:29:42.709Z,8.65
2022-08-16T17:32:34.020Z,37.10
2022-08-16T17:35:17.833Z,9.07
2022-08-16T17:37:51.469Z,7.45
2022-08-16T17:40:47.014Z,7.13
2022-08-16T17:43:28.288Z,7.53
2022-08-16T17:45:56.072Z,7.90
2022-08-16T17:48:23.828Z,7.90
2022-08-16T17:50:54.457Z,7.45
2022-08-16T17:53:22.553Z,12.05
2022-08-16T17:55:50.644Z,9.60
2022-08-16T17:58:22.365Z,8.73
2022-08-16T18:00:52.611Z,11.48
2022-08-16T18:04:02.667Z,14.88
2022-08-16T18:06:16.780Z,12.77
2022-08-16T18:08:48.845Z,10.00
2022-08-16T18:11:18.925Z,9.33
2022-08-16T18:13:53.897Z,78.53
2022-08-16T18:16:20.910Z,33.45
2022-08-16T18:18:48.121Z,17.08
2022-08-16T18:21:34.086Z,9.60
2022-08-16T18:24:01.581Z,9.93
2022-08-16T18:26:29.704Z,10.10
2022-08-16T18:28:56.858Z,12.93
2022-08-16T18:31:25.169Z,20.30
2022-08-16T18:33:55.651Z,20.02
2022-08-16T18:36:24.866Z,18.00
2022-08-16T18:38:52.620Z,10.55
2022-08-16T18:41:22.536Z,9.25
2022-08-16T18:44:04.792Z,10.10
2022-08-16T18:46:50.781Z,9.80
2022-08-16T18:49:19.203Z,9.35
2022-08-16T18:51:46.513Z,16.80
2022-08-16T18:54:18.261Z,25.80
2022-08-16T18:56:55.191Z,17.15
2022-08-16T18:59:27.827Z,21.90
2022-08-16T19:02:00.004Z,23.40
2022-08-16T19:04:56.257Z,21.63
2022-08-16T19:07:19.629Z,23.67
2022-08-16T19:09:47.001Z,25.25
2022-08-16T19:12:16.007Z,23.55
2022-08-16T19:14:45.441Z,16.77
2022-08-16T19:17:12.959Z,13.55
2022-08-16T19:19:40.077Z,10.98
2022-08-16T19:22:07.133Z,38.50
2022-08-16T19:24:34.430Z,37.10
2022-08-16T19:27:01.613Z,61.50
2022-08-16T19:29:29.258Z,91.35
2022-08-16T19:31:56.572Z,131.93
2022-08-16T19:34:23.582Z,70.53
2022-08-16T19:36:50.611Z,46.33
2022-08-16T19:39:18.080Z,35.92
2022-08-16T19:41:53.732Z,32.10
2022-08-16T19:44:24.216Z,57.63
2022-08-16T19:46:51.600Z,45.83
2022-08-16T19:49:18.712Z,30.88
2022-08-16T19:51:46.971Z,32.63
2022-08-16T19:54:14.225Z,18.55
2022-08-16T19:56:41.213Z,16.77
2022-08-16T19:59:39.534Z,16.00
2022-08-16T20:01:55.929Z,26.10
2022-08-16T20:04:24.568Z,25.60
2022-08-16T20:06:53.168Z,19.92
2022-08-16T20:09:24.665Z,17.73
2022-08-16T20:11:53.784Z,18.80
2022-08-16T20:14:25.613Z,19.52
2022-08-16T20:16:55.840Z,19.77
2022-08-16T20:19:23.429Z,20.98
2022-08-16T20:21:50.905Z,21.85
2022-08-16T20:24:35.896Z,21.65
2022-08-16T20:27:07.339Z,20.50
2022-08-16T20:29:35.384Z,19.38
2022-08-16T20:32:06.529Z,18.55
2022-08-16T20:34:34.535Z,16.08
2022-08-16T20:37:01.869Z,14.48
2022-08-16T20:39:29.021Z,14.90
2022-08-16T20:41:56.449Z,12.65
2022-08-16T20:44:25.009Z,12.63
2022-08-16T20:46:52.878Z,13.25
2022-08-16T20:49:19.991Z,17.52
2022-08-16T20:51:51.685Z,17.73
2022-08-16T20:54:20.938Z,16.63
2022-08-16T20:56:48.434Z,14.30
2022-08-16T20:59:16.360Z,13.85
2022-08-16T21:01:46.589Z,14.10
2022-08-16T21:04:24.687Z,13.30
2022-08-16T21:09:27.384Z,13.52
2022-08-16T21:11:57.549Z,15.55
2022-08-16T21:14:27.724Z,16.40
2022-08-16T21:16:55.948Z,16.02
2022-08-16T21:19:23.303Z,16.85
2022-08-16T21:21:50.971Z,14.85
2022-08-16T21:24:18.319Z,15.93
2022-08-16T21:26:55.685Z,15.07
2022-08-16T21:29:39.025Z,16.42
2022-08-16T21:32:17.762Z,14.02
2022-08-16T21:34:45.686Z,13.32
2022-08-16T21:37:15.697Z,12.45
2022-08-16T21:39:44.702Z,11.98
2022-08-16T21:42:15.169Z,12.65
2022-08-16T21:44:43.039Z,12.00
2022-08-16T21:47:10.411Z,12.60
2022-08-16T21:49:38.298Z,12.80
2022-08-16T21:52:07.286Z,13.13
2022-08-16T21:54:34.829Z,13.10
2022-08-16T21:57:02.501Z,14.75
2022-08-16T21:59:29.834Z,12.93
2022-08-16T22:01:57.026Z,13.13
2022-08-16T22:04:36.874Z,12.48
2022-08-16T22:07:06.353Z,12.40
2022-08-16T22:09:34.023Z,11.93
2022-08-16T22:12:01.345Z,12.07
2022-08-16T22:14:28.446Z,12.85
2022-08-16T22:16:56.501Z,12.50
2022-08-16T22:19:24.155Z,12.93
2022-08-16T22:21:51.867Z,13.13
2022-08-16T22:24:19.211Z,13.77
2022-08-16T22:26:46.219Z,13.00
2022-08-16T22:29:14.493Z,13.75
2022-08-16T22:31:43.508Z,12.88
2022-08-16T22:34:10.522Z,13.40
2022-08-16T22:36:38.916Z,15.38
2022-08-16T22:39:08.930Z,14.68
2022-08-16T22:41:37.602Z,28.90
2022-08-16T22:44:06.166Z,24.90
2022-08-16T22:46:36.368Z,24.17
2022-08-16T22:49:05.670Z,26.45
2022-08-16T22:51:33.056Z,18.95
2022-08-16T22:54:00.682Z,14.48
2022-08-16T22:56:47.722Z,15.80
2022-08-16T22:59:14.938Z,18.08
2022-08-16T23:01:42.131Z,22.10
2022-08-16T23:04:09.277Z,22.48
2022-08-16T23:06:36.493Z,15.80
2022-08-16T23:09:03.761Z,15.88
2022-08-16T23:11:30.816Z,14.07
2022-08-16T23:13:58.231Z,13.32
2022-08-16T23:16:33.239Z,12.90
2022-08-16T23:19:05.062Z,12.90
2022-08-16T23:21:32.385Z,12.90
2022-08-16T23:24:00.011Z,14.77
2022-08-16T23:26:44.438Z,16.13
2022-08-16T23:29:24.832Z,19.90
2022-08-16T23:32:09.341Z,29.20
2022-08-16T23:34:36.708Z,19.38
2022-08-16T23:37:04.116Z,14.50
2022-08-16T23:39:31.131Z,12.90
2022-08-16T23:41:58.297Z,22.23
2022-08-16T23:44:55.643Z,17.60
2022-08-16T23:47:12.667Z,15.43
2022-08-16T23:49:56.845Z,15.23
2022-08-16T23:52:48.815Z,13.20
2022-08-16T23:55:17.028Z,13.48
2022-08-16T23:57:46.147Z,13.80
